Time;durP1;ratioP1;P1;durP2;ratioP2;P2;SDS_P1;SDS_P2;PMS_P1;PMS_P2;Temp;Humidity;BMP_temperature;BMP_pressure;BME280_temperature;BME280_humidity;BME280_pressure;Samples;Min_cycle;Max_cycle;Signal;HPM_P1;HPM_P2
2022/04/18 00:01:42;;;;;;;12.95;9.93;;;8.40;74.10;;;;;;5020635;28;20542;-84
2022/04/18 00:04:08;;;;;;;12.43;9.57;;;8.30;74.50;;;;;;5026258;28;20057;-84
2022/04/18 00:06:36;;;;;;;16.10;10.27;;;8.30;75.40;;;;;;5028627;28;20037;-84
2022/04/18 00:09:03;;;;;;;13.63;10.02;;;8.20;75.80;;;;;;5026136;28;20091;-83
2022/04/18 00:11:28;;;;;;;14.10;10.20;;;8.20;76.20;;;;;;5026689;28;20041;-84
2022/04/18 00:13:54;;;;;;;13.35;9.60;;;8.10;77.00;;;;;;5025880;28;20415;-84
2022/04/18 00:16:19;;;;;;;13.10;10.10;;;8.10;77.40;;;;;;5026262;28;20128;-84
2022/04/18 00:18:45;;;;;;;15.63;9.90;;;8.10;77.80;;;;;;5027004;28;20048;-84
2022/04/18 00:21:10;;;;;;;12.40;10.18;;;8.00;78.20;;;;;;5025601;28;20052;-83
2022/04/18 00:23:36;;;;;;;15.35;10.07;;;8.00;78.70;;;;;;5026062;28;20030;-84
2022/04/18 00:26:02;;;;;;;13.55;10.10;;;7.90;79.90;;;;;;5026724;28;20076;-84
2022/04/18 00:28:28;;;;;;;15.75;10.30;;;7.90;80.40;;;;;;5026728;28;20030;-84
2022/04/18 00:30:53;;;;;;;14.63;10.52;;;7.80;80.70;;;;;;5024997;28;20085;-84
2022/04/18 00:33:19;;;;;;;17.08;11.00;;;7.80;81.40;;;;;;5025553;28;20043;-84
2022/04/18 00:35:44;;;;;;;13.95;10.98;;;7.80;82.00;;;;;;5024540;28;20029;-84
2022/04/18 00:38:10;;;;;;;14.90;10.48;;;7.80;82.80;;;;;;5026835;28;20061;-84
2022/04/18 00:40:35;;;;;;;15.05;11.25;;;7.70;83.20;;;;;;5041235;28;20139;-85
2022/04/18 00:43:03;;;;;;;16.38;11.25;;;7.70;84.40;;;;;;5025031;28;20095;-84
2022/04/18 00:45:29;;;;;;;14.75;10.77;;;7.70;84.90;;;;;;5024857;28;20043;-84
2022/04/18 00:47:54;;;;;;;16.42;11.70;;;7.60;85.30;;;;;;5026674;28;20418;-85
2022/04/18 00:50:20;;;;;;;16.75;11.50;;;7.60;86.20;;;;;;5024639;28;20034;-84
2022/04/18 00:52:49;;;;;;;15.30;10.63;;;7.60;86.70;;;;;;5025444;28;20060;-84
2022/04/18 00:55:15;;;;;;;16.23;11.02;;;7.60;87.40;;;;;;5027189;28;20120;-84
2022/04/18 00:57:41;;;;;;;14.93;11.15;;;7.50;88.00;;;;;;5026405;28;20053;-84
2022/04/18 01:00:07;;;;;;;16.33;11.82;;;7.60;88.50;;;;;;5025976;28;20487;-84
2022/04/18 01:02:33;;;;;;;16.23;11.18;;;7.50;89.30;;;;;;5025081;28;20045;-84
2022/04/18 01:04:58;;;;;;;14.57;11.25;;;7.50;89.10;;;;;;5024558;28;20055;-84
2022/04/18 01:07:24;;;;;;;17.83;10.73;;;7.60;89.60;;;;;;5025912;28;20033;-85
2022/04/18 01:09:50;;;;;;;15.60;11.32;;;7.50;90.10;;;;;;5027102;28;20037;-84
2022/04/18 01:12:16;;;;;;;14.80;11.18;;;7.50;90.30;;;;;;5025026;28;20411;-84
2022/04/18 01:14:48;;;;;;;17.38;11.80;;;7.50;90.50;;;;;;5025945;28;20172;-84
2022/04/18 01:17:17;;;;;;;15.82;12.02;;;7.50;90.90;;;;;;5019980;28;20427;-84
2022/04/18 01:19:43;;;;;;;16.83;11.30;;;7.40;90.90;;;;;;5047341;28;20094;-84
2022/04/18 01:22:09;;;;;;;15.02;11.43;;;7.40;91.20;;;;;;5030918;28;20423;-84
2022/04/18 01:30:07;;;;;;;18.50;12.40;;;7.30;92.30;;;;;;5025153;28;20163;-85
2022/04/18 01:32:32;;;;;;;16.67;11.40;;;7.30;92.30;;;;;;5024113;28;20124;-85
2022/04/18 01:34:58;;;;;;;15.73;11.55;;;7.20;92.50;;;;;;5007969;28;20044;-84
2022/04/18 01:37:24;;;;;;;17.83;12.23;;;7.20;92.90;;;;;;5025751;28;20049;-84
2022/04/18 01:39:50;;;;;;;18.50;12.27;;;7.20;93.20;;;;;;5025635;28;20033;-85
2022/04/18 01:42:16;;;;;;;16.58;11.63;;;7.20;93.40;;;;;;5025328;28;20048;-85
2022/04/18 01:44:41;;;;;;;18.60;12.18;;;7.10;93.90;;;;;;5022818;28;20088;-84
2022/04/18 01:47:07;;;;;;;18.65;12.27;;;7.10;94.00;;;;;;5023228;28;20112;-85
2022/04/18 01:49:33;;;;;;;16.92;11.93;;;7.00;94.50;;;;;;5024195;28;20068;-85
2022/04/18 01:51:58;;;;;;;18.05;12.30;;;7.00;94.40;;;;;;5025204;28;20072;-84
2022/04/18 01:54:24;;;;;;;18.65;12.13;;;7.00;94.70;;;;;;5024085;28;20041;-85
2022/04/18 01:56:50;;;;;;;17.70;11.68;;;7.00;94.80;;;;;;5023349;28;20045;-84
2022/04/18 01:59:15;;;;;;;17.02;11.95;;;7.00;94.80;;;;;;5023827;28;20045;-85
2022/04/18 02:01:41;;;;;;;18.23;12.38;;;7.00;95.10;;;;;;5006541;28;20034;-84
2022/04/18 02:04:07;;;;;;;17.30;12.18;;;6.90;95.30;;;;;;5022388;28;20047;-85
2022/04/18 02:06:33;;;;;;;17.67;12.23;;;6.90;95.60;;;;;;5023286;28;20521;-86
2022/04/18 02:08:59;;;;;;;19.00;12.43;;;6.90;95.90;;;;;;5025704;28;20030;-84
2022/04/18 02:11:25;;;;;;;16.75;12.55;;;6.90;95.90;;;;;;5007535;28;20036;-86
2022/04/18 02:13:52;;;;;;;17.10;12.02;;;6.90;96.30;;;;;;5024619;28;20033;-85
2022/04/18 02:16:18;;;;;;;17.30;12.10;;;6.80;96.60;;;;;;5023403;28;20067;-85
2022/04/18 02:18:44;;;;;;;17.15;12.35;;;6.80;96.70;;;;;;5022452;28;20042;-85
2022/04/18 02:21:11;;;;;;;18.73;12.45;;;6.80;97.10;;;;;;5025533;28;20515;-85
2022/04/18 02:23:41;;;;;;;16.73;12.13;;;6.70;97.20;;;;;;5023601;28;20499;-85
2022/04/18 02:26:07;;;;;;;17.65;12.00;;;6.70;97.50;;;;;;5024693;28;20029;-85
2022/04/18 02:28:33;;;;;;;19.30;12.60;;;6.90;97.70;;;;;;5024473;28;20129;-85
2022/04/18 02:30:58;;;;;;;16.92;12.07;;;6.70;97.90;;;;;;5023536;28;20428;-85
2022/04/18 02:33:24;;;;;;;18.98;12.65;;;6.70;98.20;;;;;;5024408;28;20506;-85
2022/04/18 02:35:50;;;;;;;17.13;12.07;;;6.70;98.30;;;;;;5024004;28;20087;-85
2022/04/18 02:38:16;;;;;;;17.85;12.07;;;6.70;98.50;;;;;;5023914;28;20416;-84
2022/04/18 02:40:42;;;;;;;22.10;12.60;;;6.60;98.60;;;;;;5023080;28;20033;-85
2022/04/18 02:43:09;;;;;;;18.77;12.55;;;6.70;98.70;;;;;;5024397;28;20546;-85
2022/04/18 02:45:34;;;;;;;17.70;12.77;;;6.60;99.60;;;;;;5023536;28;20126;-85
2022/04/18 02:48:00;;;;;;;19.92;12.75;;;6.50;99.40;;;;;;5026624;28;20108;-85
2022/04/18 02:50:26;;;;;;;16.65;11.63;;;6.60;99.70;;;;;;5028496;28;20030;-85
2022/04/18 02:52:52;;;;;;;18.10;12.00;;;6.50;99.80;;;;;;5028904;28;20037;-85
2022/04/18 02:55:18;;;;;;;16.52;12.07;;;6.50;99.90;;;;;;5028572;28;20037;-85
2022/04/18 02:57:43;;;;;;;18.42;12.63;;;6.50;99.90;;;;;;5027144;28;20076;-85
2022/04/18 03:00:10;;;;;;;18.67;12.57;;;6.40;99.90;;;;;;5012461;28;20120;-85
2022/04/18 03:02:37;;;;;;;15.80;12.05;;;6.40;99.90;;;;;;5012088;28;20072;-85
2022/04/18 03:05:04;;;;;;;18.15;12.35;;;6.40;99.90;;;;;;5027898;28;20503;-86
2022/04/18 03:07:30;;;;;;;19.42;12.30;;;6.40;99.90;;;;;;5028463;28;20033;-84
2022/04/18 03:09:56;;;;;;;16.98;12.40;;;6.40;99.90;;;;;;5026492;28;20047;-85
2022/04/18 03:12:22;;;;;;;18.83;12.18;;;6.30;99.90;;;;;;5028592;28;20026;-86
2022/04/18 03:14:49;;;;;;;17.90;12.30;;;6.30;99.90;;;;;;5027741;28;20041;-86
2022/04/18 03:17:15;;;;;;;19.48;12.55;;;6.30;99.90;;;;;;5029606;28;20041;-85
2022/04/18 03:19:40;;;;;;;18.42;12.38;;;6.30;99.90;;;;;;5027096;28;20049;-86
2022/04/18 03:22:06;;;;;;;17.42;12.23;;;6.30;99.90;;;;;;5011981;28;20041;-86
2022/04/18 03:24:33;;;;;;;16.13;11.98;;;6.30;99.90;;;;;;5026943;28;20044;-85
2022/04/18 03:26:59;;;;;;;18.88;12.27;;;6.20;99.90;;;;;;5026580;28;20124;-85
2022/04/18 03:29:25;;;;;;;16.95;11.45;;;6.30;99.90;;;;;;5028153;28;20116;-84
2022/04/18 03:31:51;;;;;;;17.60;12.77;;;6.20;99.90;;;;;;5028141;28;20596;-85
2022/04/18 03:34:16;;;;;;;19.70;12.52;;;6.20;99.90;;;;;;5026246;28;20040;-85
2022/04/18 03:42:10;;;;;;;18.95;12.07;;;6.10;99.90;;;;;;5028632;28;20046;-86
2022/04/18 03:44:43;;;;;;;17.85;11.95;;;6.00;99.90;;;;;;5026215;28;20038;-86
2022/04/18 03:47:10;;;;;;;20.52;12.13;;;6.00;99.90;;;;;;5028209;28;20042;-86
2022/04/18 03:49:36;;;;;;;15.40;11.68;;;6.00;99.90;;;;;;5011128;28;20112;-85
2022/04/18 03:52:01;;;;;;;18.15;12.23;;;6.00;99.90;;;;;;5027678;28;20471;-85
2022/04/18 03:54:27;;;;;;;18.75;12.90;;;6.20;99.90;;;;;;5026784;28;20037;-85
2022/04/18 03:56:52;;;;;;;16.83;12.15;;;5.90;99.90;;;;;;5027175;28;20049;-85
2022/04/18 03:59:18;;;;;;;19.05;12.27;;;5.90;99.90;;;;;;5026205;28;20491;-86
2022/04/18 04:01:44;;;;;;;17.20;12.18;;;5.90;99.90;;;;;;5026600;28;20033;-86
2022/04/18 04:04:09;;;;;;;18.70;12.70;;;5.90;99.90;;;;;;5026836;28;20048;-85
2022/04/18 04:06:35;;;;;;;18.98;12.60;;;5.90;99.90;;;;;;5027278;28;20037;-86
2022/04/18 04:09:00;;;;;;;19.27;11.88;;;5.90;99.90;;;;;;5026970;28;20049;-86
2022/04/18 04:11:26;;;;;;;17.60;12.18;;;5.90;99.90;;;;;;5010778;28;20045;-86
2022/04/18 04:13:52;;;;;;;18.92;11.93;;;5.90;99.90;;;;;;5026898;28;20495;-86
2022/04/18 04:16:18;;;;;;;17.63;12.13;;;5.80;99.90;;;;;;5028802;28;20045;-85
2022/04/18 04:18:44;;;;;;;17.98;12.23;;;5.80;99.90;;;;;;5028559;28;20053;-86
2022/04/18 04:21:09;;;;;;;19.38;12.27;;;5.80;99.90;;;;;;5027207;28;20037;-85
2022/04/18 04:23:35;;;;;;;16.65;12.10;;;5.80;99.90;;;;;;5025382;28;20050;-85
2022/04/18 04:26:01;;;;;;;16.00;12.13;;;5.80;99.90;;;;;;5026998;28;20044;-85
2022/04/18 04:28:26;;;;;;;20.73;12.80;;;5.80;99.90;;;;;;5027712;28;20037;-86
2022/04/18 04:30:52;;;;;;;18.25;12.90;;;5.80;99.90;;;;;;5029384;28;20108;-86
2022/04/18 04:33:18;;;;;;;19.40;12.77;;;5.70;99.90;;;;;;5027043;28;20073;-85
2022/04/18 04:35:43;;;;;;;18.92;12.80;;;5.80;99.90;;;;;;5010584;28;20061;-85
2022/04/18 04:38:09;;;;;;;18.88;12.82;;;5.80;99.90;;;;;;5026640;28;20044;-86
2022/04/18 04:40:34;;;;;;;15.45;11.50;;;5.80;99.90;;;;;;5027298;28;20060;-85
2022/04/18 04:43:00;;;;;;;16.48;11.73;;;5.80;99.90;;;;;;5027735;28;20099;-86
2022/04/18 04:45:25;;;;;;;16.15;12.02;;;5.80;99.90;;;;;;5025556;28;20029;-85
2022/04/18 04:47:51;;;;;;;16.02;11.90;;;5.80;99.90;;;;;;5025783;28;20041;-85
2022/04/18 04:50:16;;;;;;;19.38;11.70;;;5.80;99.90;;;;;;5026300;28;20033;-85
2022/04/18 04:52:42;;;;;;;17.73;12.20;;;5.80;99.90;;;;;;5026214;28;20492;-86
2022/04/18 04:55:08;;;;;;;18.27;12.68;;;5.90;99.90;;;;;;5024872;28;20052;-85
2022/04/18 04:57:34;;;;;;;18.13;12.40;;;5.90;99.90;;;;;;5026165;28;20091;-86
2022/04/18 05:00:00;;;;;;;17.60;11.98;;;5.90;99.90;;;;;;5026605;28;20061;-86
2022/04/18 05:02:26;;;;;;;18.20;12.20;;;6.00;99.90;;;;;;5030185;28;20491;-86
2022/04/18 05:04:51;;;;;;;16.27;11.90;;;6.00;99.90;;;;;;5030996;28;20037;-86
2022/04/18 05:07:17;;;;;;;16.42;11.48;;;6.10;99.90;;;;;;5031404;28;20041;-86
2022/04/18 05:09:42;;;;;;;17.15;11.35;;;6.20;99.90;;;;;;5030271;28;20042;-86
2022/04/18 05:12:09;;;;;;;15.65;11.15;;;6.20;99.90;;;;;;5029236;28;20379;-86
2022/04/18 05:14:34;;;;;;;16.23;11.43;;;6.30;99.90;;;;;;5025475;28;20518;-86
2022/04/18 05:17:01;;;;;;;17.48;12.18;;;6.30;99.90;;;;;;5026966;28;20045;-86
2022/04/18 05:19:27;;;;;;;15.35;11.05;;;6.40;99.90;;;;;;5027699;28;20124;-86
2022/04/18 05:21:53;;;;;;;15.85;11.23;;;6.50;99.90;;;;;;5025520;28;20041;-87
2022/04/18 05:24:18;;;;;;;14.70;10.57;;;6.50;99.90;;;;;;5024834;28;20087;-87
2022/04/18 05:26:46;;;;;;;16.98;10.95;;;6.60;99.90;;;;;;5027070;28;20135;-86
2022/04/18 05:29:12;;;;;;;16.23;10.80;;;6.70;99.90;;;;;;5024200;28;20056;-84
2022/04/18 05:31:38;;;;;;;14.30;10.30;;;6.80;99.90;;;;;;5029379;28;20407;-86
2022/04/18 05:34:03;;;;;;;15.65;11.15;;;6.90;99.90;;;;;;5008593;28;20037;-87
2022/04/18 05:36:29;;;;;;;23.35;11.75;;;7.00;99.90;;;;;;5026511;28;20162;-86
2022/04/18 05:38:55;;;;;;;17.05;11.10;;;7.00;99.90;;;;;;5023289;28;20041;-86
2022/04/18 05:41:21;;;;;;;20.95;11.10;;;7.10;99.90;;;;;;5027619;28;20072;-87
2022/04/18 05:43:49;;;;;;;16.15;11.00;;;7.20;99.90;;;;;;5029048;28;20526;-87
2022/04/18 05:46:15;;;;;;;16.00;11.30;;;7.80;99.90;;;;;;5029214;28;20384;-86
2022/04/18 05:48:41;;;;;;;15.82;10.52;;;7.60;99.90;;;;;;5024919;28;20037;-86
2022/04/18 05:51:07;;;;;;;17.20;11.07;;;7.40;99.90;;;;;;5027984;28;20455;-87
2022/04/18 05:53:32;;;;;;;17.30;11.15;;;7.50;99.90;;;;;;5012095;28;20034;-86
2022/04/18 05:55:58;;;;;;;14.82;10.35;;;7.60;99.90;;;;;;5024146;28;20100;-86
2022/04/18 05:58:23;;;;;;;14.23;10.25;;;7.70;99.90;;;;;;5020797;28;20416;-86
2022/04/18 06:00:49;;;;;;;13.40;9.98;;;7.80;99.90;;;;;;5027565;28;20135;-86
2022/04/18 06:03:15;;;;;;;15.13;10.57;;;7.90;99.90;;;;;;5029705;28;20048;-86
2022/04/18 06:05:40;;;;;;;15.73;10.30;;;7.90;99.90;;;;;;5019086;28;20069;-86
2022/04/18 06:08:06;;;;;;;13.90;9.70;;;8.00;99.90;;;;;;5042315;28;20045;-86
2022/04/18 06:10:32;;;;;;;14.65;10.38;;;8.10;99.90;;;;;;5011005;28;20037;-87
2022/04/18 06:12:57;;;;;;;15.48;10.68;;;8.20;99.90;;;;;;5040203;28;20033;-86
2022/04/18 06:15:23;;;;;;;14.57;10.23;;;8.40;99.90;;;;;;5028490;28;20573;-86
2022/04/18 06:17:48;;;;;;;13.68;9.90;;;8.40;99.90;;;;;;5024397;28;20037;-87
2022/04/18 06:20:14;;;;;;;13.90;10.13;;;8.50;99.90;;;;;;5021719;28;20049;-86
2022/04/18 06:22:39;;;;;;;13.35;9.55;;;8.60;99.90;;;;;;5025782;28;20053;-86
2022/04/18 06:25:05;;;;;;;14.77;9.93;;;8.70;99.90;;;;;;5028982;28;20045;-87
2022/04/18 06:27:31;;;;;;;17.50;10.20;;;8.80;99.90;;;;;;5029912;28;20037;-86
2022/04/18 06:29:56;;;;;;;16.05;10.40;;;8.90;99.90;;;;;;5030093;28;20044;-87
2022/04/18 06:32:24;;;;;;;15.13;10.02;;;9.00;99.90;;;;;;5027786;28;20384;-87
2022/04/18 06:34:50;;;;;;;13.35;9.73;;;9.10;99.90;;;;;;5025697;28;20039;-87
2022/04/18 06:37:15;;;;;;;13.35;9.32;;;9.20;99.70;;;;;;5007249;28;20084;-86
2022/04/18 06:39:43;;;;;;;13.88;9.18;;;9.30;99.60;;;;;;5029376;28;20044;-87
2022/04/18 06:42:09;;;;;;;14.20;9.23;;;9.40;99.50;;;;;;5015647;28;20050;-87
2022/04/18 06:44:35;;;;;;;14.50;9.50;;;9.50;99.40;;;;;;5021720;28;20045;-87
2022/04/18 06:47:00;;;;;;;14.45;10.15;;;9.60;99.10;;;;;;5030012;28;20042;-86
2022/04/18 06:49:26;;;;;;;14.13;9.60;;;9.70;99.00;;;;;;5029066;28;20038;-85
2022/04/18 06:51:52;;;;;;;13.48;9.00;;;9.80;99.00;;;;;;5026625;28;20673;-85
2022/04/18 06:54:17;;;;;;;14.35;9.95;;;10.00;99.00;;;;;;5026694;28;20041;-85
2022/04/18 06:57:01;;;;;;;13.90;9.70;;;10.00;98.70;;;;;;5028126;28;20069;-86
2022/04/18 06:59:30;;;;;;;11.98;9.25;;;10.20;98.80;;;;;;5027178;28;20049;-87
2022/04/18 07:01:58;;;;;;;12.93;9.60;;;10.30;98.60;;;;;;5028899;28;20053;-87
2022/04/18 07:04:23;;;;;;;13.50;9.27;;;10.30;98.40;;;;;;5028445;28;20095;-86
2022/04/18 07:06:49;;;;;;;20.10;9.43;;;10.50;98.30;;;;;;5028475;28;20038;-86
2022/04/18 07:09:14;;;;;;;12.68;9.18;;;10.60;98.00;;;;;;5026106;28;20505;-86
2022/04/18 07:11:42;;;;;;;12.35;9.20;;;10.70;97.90;;;;;;5026061;28;20036;-85
2022/04/18 07:14:08;;;;;;;13.32;9.40;;;10.80;97.50;;;;;;5024310;28;20045;-86
2022/04/18 07:16:34;;;;;;;13.32;9.18;;;10.90;96.70;;;;;;5012072;28;20033;-86
2022/04/18 07:18:59;;;;;;;11.93;9.20;;;11.20;97.00;;;;;;5029494;28;20386;-85
2022/04/18 07:21:26;;;;;;;12.95;9.15;;;11.20;96.80;;;;;;5023894;28;20124;-85
2022/04/18 07:23:52;;;;;;;12.98;9.95;;;11.60;96.60;;;;;;5004861;28;20052;-85
2022/04/18 07:26:18;;;;;;;11.38;8.40;;;11.70;96.20;;;;;;5020644;28;20056;-84
2022/04/18 07:28:44;;;;;;;11.90;8.85;;;12.40;96.10;;;;;;5020805;28;20075;-84
2022/04/18 07:31:10;;;;;;;11.38;8.77;;;11.60;95.30;;;;;;5026928;28;20171;-84
2022/04/18 07:33:36;;;;;;;10.93;8.35;;;11.70;94.60;;;;;;5025129;28;20042;-84
2022/04/18 07:36:03;;;;;;;10.65;8.52;;;11.90;94.40;;;;;;4994918;28;20045;-84
2022/04/18 07:41:14;;;;;;;11.75;8.50;;;12.20;93.80;;;;;;5030222;28;20050;-84
2022/04/18 07:43:40;;;;;;;12.80;8.40;;;12.20;92.90;;;;;;5032083;28;20411;-84
2022/04/18 07:46:05;;;;;;;9.90;8.25;;;12.40;92.80;;;;;;5014579;28;20880;-84
2022/04/18 07:48:31;;;;;;;11.20;8.68;;;12.50;92.60;;;;;;5024129;28;20037;-84
2022/04/18 07:53:42;;;;;;;12.57;8.55;;;12.70;91.90;;;;;;5024005;28;20041;-84
2022/04/18 07:56:08;;;;;;;11.00;7.63;;;12.80;91.70;;;;;;5032695;28;20439;-84
2022/04/18 07:58:33;;;;;;;12.40;8.02;;;12.80;88.50;;;;;;5023731;28;20045;-83
2022/04/18 08:00:59;;;;;;;12.10;8.40;;;12.90;90.60;;;;;;5023742;28;20044;-83
2022/04/18 08:03:24;;;;;;;12.18;8.60;;;13.00;90.50;;;;;;5031705;28;20088;-83
2022/04/18 08:05:50;;;;;;;11.68;7.88;;;13.00;90.00;;;;;;5031231;28;20171;-83
2022/04/18 08:08:15;;;;;;;10.63;7.38;;;13.20;90.20;;;;;;5022524;28;20037;-83
2022/04/18 08:10:41;;;;;;;13.02;8.23;;;13.30;89.40;;;;;;5044014;28;20034;-83
2022/04/18 08:13:07;;;;;;;12.13;7.65;;;13.40;88.20;;;;;;5025237;28;20095;-83
2022/04/18 08:15:33;;;;;;;15.00;7.78;;;13.40;86.20;;;;;;5021741;28;20042;-83
2022/04/18 08:17:59;;;;;;;20.15;8.38;;;13.50;86.30;;;;;;5031826;28;20037;-82
2022/04/18 08:20:25;;;;;;;11.40;8.30;;;13.50;86.00;;;;;;5023408;28;20095;-82
2022/04/18 08:22:50;;;;;;;12.65;8.07;;;13.70;86.80;;;;;;5028504;28;20037;-82
2022/04/18 08:25:16;;;;;;;11.68;8.38;;;13.80;85.80;;;;;;5029673;28;20411;-83
2022/04/18 08:27:41;;;;;;;11.88;7.90;;;13.90;85.20;;;;;;5023273;28;20527;-82
2022/04/18 08:30:07;;;;;;;10.07;7.28;;;14.00;84.90;;;;;;5024219;28;20034;-81
2022/04/18 08:32:37;;;;;;;10.27;7.35;;;14.10;84.90;;;;;;5029905;28;20033;-82
2022/04/18 08:35:04;;;;;;;10.00;7.50;;;14.30;81.90;;;;;;5031077;28;20037;-83
2022/04/18 08:37:29;;;;;;;14.13;7.35;;;14.40;83.40;;;;;;5025569;28;20510;-82
2022/04/18 08:39:55;;;;;;;11.00;7.88;;;14.50;84.00;;;;;;5029909;28;20084;-82
2022/04/18 08:42:22;;;;;;;10.52;7.63;;;14.50;82.40;;;;;;5031792;28;20460;-82
2022/04/18 08:44:50;;;;;;;13.18;7.70;;;14.60;80.90;;;;;;5030651;28;20041;-83
2022/04/18 08:52:43;;;;;;;10.25;7.45;;;14.70;81.20;;;;;;5028465;28;20033;-82
2022/04/18 08:52:50;;;;;;;12.07;7.43;;;14.90;79.90;;;;;;5025397;28;20041;-83
2022/04/18 08:55:16;;;;;;;9.40;7.10;;;15.00;78.70;;;;;;5021281;28;20037;-82
2022/04/18 08:57:42;;;;;;;9.70;7.22;;;15.20;79.60;;;;;;5013935;28;20044;-82
2022/04/18 09:00:08;;;;;;;10.13;7.47;;;15.30;80.30;;;;;;5012766;28;20089;-83
2022/04/18 09:02:35;;;;;;;10.63;6.57;;;15.40;80.00;;;;;;5026136;28;20159;-82
2022/04/18 09:05:00;;;;;;;10.30;6.78;;;15.60;80.00;;;;;;5025596;28;20049;-83
2022/04/18 09:07:26;;;;;;;8.55;6.68;;;15.60;78.20;;;;;;5028236;28;20049;-82
2022/04/18 09:09:58;;;;;;;9.82;6.53;;;15.70;78.30;;;;;;5029981;28;20037;-83
2022/04/18 09:12:28;;;;;;;9.20;6.88;;;15.80;77.30;;;;;;5028139;28;20041;-82
2022/04/18 09:14:53;;;;;;;10.77;6.72;;;15.90;76.20;;;;;;5030214;28;20522;-82
2022/04/18 09:17:30;;;;;;;9.57;6.68;;;16.00;77.30;;;;;;5028359;28;20095;-83
2022/04/18 09:20:10;;;;;;;9.02;6.80;;;16.00;76.60;;;;;;5007238;28;20427;-84
2022/04/18 09:22:42;;;;;;;11.38;6.43;;;16.00;75.10;;;;;;5029671;28;20084;-83
2022/04/18 09:25:16;;;;;;;7.72;6.32;;;16.10;74.90;;;;;;5028887;28;20037;-84
2022/04/18 09:27:51;;;;;;;8.32;5.68;;;16.00;73.60;;;;;;5025353;28;21718;-83
2022/04/18 09:30:17;;;;;;;9.35;6.05;;;16.10;73.40;;;;;;5029993;28;20120;-82
2022/04/18 09:33:00;;;;;;;7.85;5.82;;;16.20;73.60;;;;;;5019619;28;20478;-82
2022/04/18 09:35:27;;;;;;;7.25;5.47;;;16.30;72.80;;;;;;5011032;28;20045;-82
2022/04/18 09:37:58;;;;;;;7.43;5.50;;;16.50;74.40;;;;;;5010798;28;20077;-83
2022/04/18 09:40:24;;;;;;;8.85;5.82;;;16.60;73.40;;;;;;5011285;28;20111;-83
2022/04/18 09:42:55;;;;;;;7.80;5.75;;;16.70;71.10;;;;;;5011104;28;20057;-83
2022/04/18 09:45:22;;;;;;;9.32;5.88;;;16.70;71.70;;;;;;5010787;28;20053;-83
2022/04/18 09:48:01;;;;;;;6.32;4.93;;;16.90;71.00;;;;;;5010857;28;20042;-83
2022/04/18 09:53:22;;;;;;;7.25;5.78;;;17.00;68.40;;;;;;5028989;28;20046;-83
2022/04/18 09:55:50;;;;;;;7.68;5.70;;;17.20;69.60;;;;;;5010239;28;20034;-83
2022/04/18 09:58:16;;;;;;;8.00;5.55;;;17.20;69.90;;;;;;5004989;28;20474;-83
2022/04/18 10:00:42;;;;;;;7.35;5.90;;;17.30;70.60;;;;;;5045604;28;20073;-83
2022/04/18 10:03:08;;;;;;;8.02;5.78;;;17.40;69.60;;;;;;5024130;28;20045;-83
2022/04/18 10:05:35;;;;;;;8.45;5.55;;;17.40;67.60;;;;;;5012024;28;20489;-83
2022/04/18 10:08:04;;;;;;;6.80;4.53;;;17.60;69.90;;;;;;5024732;28;20038;-83
2022/04/18 10:10:36;;;;;;;7.80;4.97;;;17.70;68.80;;;;;;5026033;28;20114;-83
2022/04/18 10:13:04;;;;;;;7.05;4.95;;;17.70;65.40;;;;;;5026859;28;20083;-83
2022/04/18 10:15:30;;;;;;;9.85;5.47;;;17.70;66.40;;;;;;5024277;28;20480;-83
2022/04/18 10:17:59;;;;;;;6.55;4.85;;;17.70;67.10;;;;;;5024626;28;20083;-83
2022/04/18 10:20:43;;;;;;;6.35;4.70;;;17.90;67.50;;;;;;5025214;28;20094;-80
2022/04/18 10:23:27;;;;;;;;;;;18.00;66.10;;;;;;5025383;28;20506;-80
2022/04/18 10:26:29;;;;;;;6.70;4.25;;;18.10;65.50;;;;;;5027225;28;20595;-80
2022/04/18 10:28:59;;;;;;;6.95;4.22;;;18.30;64.00;;;;;;5022922;28;20048;-80
2022/04/18 10:31:39;;;;;;;7.55;4.25;;;18.50;65.40;;;;;;5024260;28;20159;-80
2022/04/18 10:34:06;;;;;;;5.18;4.05;;;18.70;64.40;;;;;;5024516;28;20045;-80
2022/04/18 10:36:33;;;;;;;4.55;3.67;;;18.80;65.20;;;;;;5027165;28;20492;-80
2022/04/18 10:39:07;;;;;;;5.18;3.85;;;19.00;65.10;;;;;;5030904;28;20578;-80
2022/04/18 10:41:44;;;;;;;3.92;2.90;;;19.00;62.10;;;;;;5032781;28;20053;-80
2022/04/18 10:44:19;;;;;;;4.68;3.22;;;19.10;59.70;;;;;;5032065;28;20041;-82
2022/04/18 10:46:49;;;;;;;3.67;2.95;;;19.30;61.60;;;;;;5016459;28;20073;-81
2022/04/18 10:49:20;;;;;;;4.95;3.28;;;19.40;60.50;;;;;;5037018;28;20090;-82
2022/04/18 10:51:47;;;;;;;4.47;2.75;;;19.50;60.60;;;;;;5026108;28;20055;-82
2022/04/18 10:54:19;;;;;;;4.70;3.47;;;19.60;60.00;;;;;;5026322;28;20053;-82
2022/04/18 10:57:06;;;;;;;5.45;3.10;;;19.60;58.20;;;;;;5033541;28;20047;-82
2022/04/18 10:59:34;;;;;;;4.70;3.20;;;19.60;57.60;;;;;;5032113;28;20046;-81
2022/04/18 11:02:05;;;;;;;4.95;3.40;;;19.80;58.80;;;;;;5033151;28;20109;-81
2022/04/18 11:04:40;;;;;;;7.88;3.63;;;19.80;57.20;;;;;;5026926;28;20072;-81
2022/04/18 11:07:07;;;;;;;3.30;2.65;;;19.70;56.60;;;;;;5028727;28;20064;-81
2022/04/18 11:09:45;;;;;;;5.35;3.00;;;19.90;57.40;;;;;;5036041;28;20079;-81
2022/04/18 11:12:13;;;;;;;7.35;3.50;;;20.10;56.90;;;;;;5035555;28;20552;-81
2022/04/18 11:14:55;;;;;;;4.95;3.15;;;20.10;55.80;;;;;;5030733;28;20499;-81
2022/04/18 11:17:26;;;;;;;6.40;3.20;;;20.30;56.10;;;;;;5030476;28;20132;-81
2022/04/18 11:19:52;;;;;;;5.60;3.58;;;20.40;53.80;;;;;;5027287;28;20038;-81
2022/04/18 11:22:20;;;;;;;7.22;3.78;;;20.50;55.10;;;;;;5029548;28;20056;-81
2022/04/18 11:24:49;;;;;;;4.63;3.45;;;20.80;55.70;;;;;;5023188;28;20045;-81
2022/04/18 11:27:16;;;;;;;5.55;3.53;;;20.90;54.90;;;;;;5032244;28;20211;-81
2022/04/18 11:29:44;;;;;;;4.30;2.90;;;21.10;55.30;;;;;;5035802;28;20043;-81
2022/04/18 11:32:15;;;;;;;4.05;3.08;;;21.20;55.00;;;;;;5039932;28;20037;-82
2022/04/18 11:34:43;;;;;;;4.78;3.30;;;21.20;54.40;;;;;;5034722;28;20043;-81
2022/04/18 11:37:10;;;;;;;5.88;3.30;;;21.30;53.90;;;;;;5036088;28;20041;-81
2022/04/18 11:39:51;;;;;;;5.50;2.90;;;21.10;52.70;;;;;;5033446;28;20053;-81
2022/04/18 11:42:19;;;;;;;4.28;3.22;;;21.20;50.30;;;;;;5021011;28;20057;-81
2022/04/18 11:44:47;;;;;;;4.15;3.20;;;21.20;50.90;;;;;;5024463;28;20052;-81
2022/04/18 11:47:18;;;;;;;4.70;3.10;;;21.20;50.20;;;;;;5033293;28;20068;-82
2022/04/18 11:49:45;;;;;;;6.32;3.33;;;21.30;51.10;;;;;;5028366;28;20092;-81
2022/04/18 11:52:19;;;;;;;5.00;3.85;;;21.30;50.50;;;;;;5019209;28;20393;-81
2022/04/18 11:55:04;;;;;;;;;;;21.20;49.10;;;;;;5041186;28;20569;-81
2022/04/18 11:57:32;;;;;;;4.53;3.35;;;21.50;49.80;;;;;;5035615;28;19917;-81
2022/04/18 11:59:58;;;;;;;4.60;3.40;;;21.30;48.90;;;;;;5034059;28;20077;-81
2022/04/18 12:08:00;;;;;;;4.80;3.60;;;21.90;50.80;;;;;;5036166;28;20590;-81
2022/04/18 12:10:28;;;;;;;5.35;4.13;;;21.90;49.40;;;;;;5051338;28;20103;-81
2022/04/18 12:12:54;;;;;;;5.20;3.42;;;21.80;49.40;;;;;;5052318;28;20092;-81
2022/04/18 12:15:25;;;;;;;4.82;3.30;;;22.00;50.70;;;;;;5035752;28;20050;-81
2022/04/18 12:17:52;;;;;;;4.65;3.28;;;22.30;50.70;;;;;;5051839;28;20080;-81
2022/04/18 12:20:23;;;;;;;5.03;3.85;;;22.40;50.50;;;;;;5051715;28;20037;-80
2022/04/18 12:22:54;;;;;;;4.72;3.63;;;22.60;50.40;;;;;;5032074;28;20069;-81
2022/04/18 12:25:23;;;;;;;4.78;3.88;;;22.80;50.80;;;;;;5030771;28;20041;-81
2022/04/18 12:27:49;;;;;;;7.15;3.95;;;22.80;50.00;;;;;;5027658;28;20553;-81
2022/04/18 12:30:16;;;;;;;5.85;3.88;;;22.80;49.70;;;;;;5033320;28;20041;-81
2022/04/18 12:32:44;;;;;;;5.25;3.80;;;22.90;49.30;;;;;;5034982;28;20030;-81
2022/04/18 12:35:10;;;;;;;5.90;3.78;;;22.80;49.00;;;;;;5032407;28;20065;-81
2022/04/18 12:37:35;;;;;;;5.10;3.72;;;22.70;48.10;;;;;;5032152;28;20443;-81
2022/04/18 12:40:12;;;;;;;5.30;3.88;;;22.90;48.10;;;;;;5029780;28;20045;-81
2022/04/18 12:42:38;;;;;;;6.18;4.43;;;22.80;46.20;;;;;;5048711;28;20048;-81
2022/04/18 12:45:04;;;;;;;4.82;3.70;;;22.60;47.60;;;;;;5033747;28;20041;-80
2022/04/18 12:47:33;;;;;;;6.88;3.97;;;22.80;48.20;;;;;;5029682;28;20037;-81
2022/04/18 12:50:05;;;;;;;4.80;3.70;;;23.10;48.30;;;;;;5024044;28;20040;-80
2022/04/18 12:52:30;;;;;;;5.00;3.50;;;23.40;48.40;;;;;;5025971;28;20041;-81
2022/04/18 12:55:06;;;;;;;5.30;3.85;;;23.50;48.10;;;;;;5026890;28;20025;-81
2022/04/18 12:57:32;;;;;;;4.20;3.30;;;23.70;47.50;;;;;;5025649;28;20041;-81
2022/04/18 13:00:09;;;;;;;3.45;3.15;;;23.80;48.50;;;;;;5022541;28;20044;-81
2022/04/18 13:02:35;;;;;;;5.68;3.85;;;23.70;47.10;;;;;;5028234;28;20044;-81
2022/04/18 13:05:00;;;;;;;4.97;3.38;;;23.90;47.50;;;;;;5012913;28;20041;-81
2022/04/18 13:07:26;;;;;;;5.68;3.30;;;23.90;47.50;;;;;;5032267;28;20049;-81
2022/04/18 13:10:03;;;;;;;4.70;3.65;;;23.80;47.00;;;;;;5050050;28;20045;-81